McComb, MS

12:56 PM CST on February 12, 2016 (GMT -0600)
RAWS | | Change Station
CLOSE
Current Station
Personal Weather Station
Location: Chatawa, MS
Elevation: 366 ft
Nearby Weather Stations

Elev 366 ft 31.19 °N, 90.48 °W | Updated 47 minutes ago

Mostly Cloudy
Mostly Cloudy
71.0 °F
Feels Like 77 °F
N
10.0
Wind Variable Wind from WNW
Gusts 20.0 mph

Today
High -- | Low -- °F
--% Chance of Precip.
Yesterday
High -- | Low -- °F
Precip. -- in
Pressure 30.20 in
Visibility 10.0 miles
Clouds Mostly Cloudy 3700 ft
Heat Index 77 °F
Dew Point 54.0 °F
Humidity 54%
Rainfall in
Snow Depth Not available.
6:46 AM 5:46 PM
Waxing Crescent, 22% visible
METAR KMCB 121853Z AUTO 31011G17KT 10SM BKN037 22/13 A3021 RMK AO2 SLP227 T02220128
Pressure 30.20 in
Visibility 10.0 miles
Clouds Mostly Cloudy 3700 ft
Heat Index 77 °F
Dew Point 54.0 °F
Humidity 54%
Rainfall in
Snow Depth Not available.
6:46 AM 5:46 PM
Waxing Crescent, 22% visible
METAR KMCB 121853Z AUTO 31011G17KT 10SM BKN037 22/13 A3021 RMK AO2 SLP227 T02220128

10-Day Weather Forecast

Almanac

Astronomy

Feb. 12, 2016 Rise Set
Actual Time
Civil Twilight
Nautical Twilight
Astronomical Twilight
Moon
Length of Visible Light
Length of Day
Tomorrow will be .
, % of the Moon is Illuminated

Today's Extremes

State Highs State Lows

Community

WunderPhotos

Upload Photos

1,892,369 photos uploaded!

WunderBlog® & News

Nearby

Air Quality

  Air Quality AQ Index Pollutant
Not available.

Snow Depth

Station Depth Elevation

Earthquake Activity

City Distance Mag. Time & Date
Minimum magnitude displayed is 2.5.

Coastal Water Temperatures

Place Temperature

Stations

Nearby Weather Stations

Station Location Temp. Windchill Dew Point Humidity Wind Precip. Elev Updated Type
                   

Watches & Warnings

There are currently no watches in effect.